createdAt,value
2022-12-17T00:00:24.476Z,101934.59
2022-12-17T00:03:47.673Z,101928.44
2022-12-17T00:07:07.973Z,101937.09
2022-12-17T00:10:28.363Z,101942.25
2022-12-17T00:13:48.851Z,101937.88
2022-12-17T00:17:12.196Z,101942.16
2022-12-17T00:20:32.719Z,101947.31
2022-12-17T00:23:55.542Z,101949.03
2022-12-17T00:27:16.458Z,101951.59
2022-12-17T00:30:36.460Z,101959.38
2022-12-17T00:33:56.448Z,101968.00
2022-12-17T00:37:16.699Z,101962.75
2022-12-17T00:40:36.726Z,101973.13
2022-12-17T00:43:57.066Z,101979.16
2022-12-17T00:47:17.231Z,101972.19
2022-12-17T00:50:37.124Z,101976.44
2022-12-17T00:53:58.883Z,101978.09
2022-12-17T00:57:19.572Z,101981.53
2022-12-17T01:00:50.797Z,101982.38
2022-12-17T01:04:11.124Z,101980.56
2022-12-17T01:07:30.995Z,101982.22
2022-12-17T01:10:51.790Z,101984.72
2022-12-17T01:14:12.733Z,101985.50
2022-12-17T01:17:32.595Z,101983.69
2022-12-17T01:20:52.422Z,101987.94
2022-12-17T01:24:12.367Z,101987.00
2022-12-17T01:27:32.831Z,101997.34
2022-12-17T01:30:55.865Z,101998.19
2022-12-17T01:34:15.869Z,101999.88
2022-12-17T01:37:35.831Z,102005.97
2022-12-17T01:40:55.595Z,102005.09
2022-12-17T01:44:15.571Z,102010.28
2022-12-17T01:47:36.689Z,102012.88
2022-12-17T01:51:03.212Z,102015.47
2022-12-17T01:54:24.134Z,102020.56
2022-12-17T01:57:45.491Z,102019.66
2022-12-17T02:01:05.757Z,102023.09
2022-12-17T02:04:27.423Z,102016.13
2022-12-17T02:08:00.454Z,102018.66
2022-12-17T02:11:32.452Z,102019.50
2022-12-17T02:15:01.571Z,102017.66
2022-12-17T02:18:29.480Z,102012.47
2022-12-17T02:21:52.391Z,102013.41
2022-12-17T02:25:21.470Z,102020.38
2022-12-17T02:28:42.904Z,102027.28
2022-12-17T02:32:04.490Z,102026.50
2022-12-17T02:35:32.311Z,102030.88
2022-12-17T02:38:53.231Z,102030.94
2022-12-17T02:42:17.723Z,102037.91
2022-12-17T02:45:38.712Z,102039.69
2022-12-17T02:48:59.563Z,102037.16
2022-12-17T02:52:21.208Z,102038.09
2022-12-17T02:55:41.054Z,102046.78
2022-12-17T02:59:01.430Z,102043.41
2022-12-17T03:02:21.869Z,102054.75
2022-12-17T03:05:45.887Z,102061.66
2022-12-17T03:09:06.353Z,102064.25
2022-12-17T03:12:26.820Z,102077.31
2022-12-17T03:15:57.520Z,102075.56
2022-12-17T03:19:18.115Z,102082.56
2022-12-17T03:22:38.018Z,102084.31
2022-12-17T03:25:57.929Z,102080.03
2022-12-17T03:29:17.792Z,102078.31
2022-12-17T03:32:37.782Z,102077.44
2022-12-17T03:35:58.183Z,102080.91
2022-12-17T03:39:18.078Z,102080.03
2022-12-17T03:42:38.108Z,102076.59
2022-12-17T03:45:58.136Z,102072.28
2022-12-17T03:49:18.246Z,102082.69
2022-12-17T03:52:38.747Z,102080.09
2022-12-17T03:55:59.300Z,102080.97
2022-12-17T03:59:19.236Z,102081.84
2022-12-17T04:02:39.346Z,102082.75
2022-12-17T04:05:59.567Z,102088.78
2022-12-17T04:09:19.928Z,102083.59
2022-12-17T04:12:39.775Z,102080.13
2022-12-17T04:16:00.361Z,102086.19
2022-12-17T04:19:20.654Z,102085.34
2022-12-17T04:22:44.994Z,102081.84
2022-12-17T04:26:05.243Z,102081.84
2022-12-17T04:29:25.151Z,102085.28
2022-12-17T04:32:45.094Z,102087.88
2022-12-17T04:36:04.981Z,102093.97
2022-12-17T04:39:24.968Z,102090.47
2022-12-17T04:42:44.798Z,102078.38
2022-12-17T04:46:08.237Z,102087.00
2022-12-17T04:49:28.456Z,102087.84
2022-12-17T04:52:48.350Z,102086.94
2022-12-17T04:56:08.785Z,102079.97
2022-12-17T04:59:28.787Z,102082.56
2022-12-17T05:02:48.966Z,102086.84
2022-12-17T05:06:09.167Z,102086.81
2022-12-17T05:09:28.880Z,102094.56
2022-12-17T05:12:49.017Z,102087.59
2022-12-17T05:16:14.557Z,102090.19
2022-12-17T05:19:42.291Z,102092.72
2022-12-17T05:23:02.404Z,102092.69
2022-12-17T05:26:26.424Z,102089.19
2022-12-17T05:29:46.851Z,102089.94
2022-12-17T05:33:06.686Z,102100.28
2022-12-17T05:36:27.194Z,102104.53
2022-12-17T05:39:47.173Z,102106.22
2022-12-17T05:43:15.558Z,102109.66
2022-12-17T05:46:36.053Z,102107.13
2022-12-17T05:49:56.431Z,102116.63
2022-12-17T05:53:31.519Z,102108.81
2022-12-17T05:56:51.366Z,102112.19
2022-12-17T06:00:11.315Z,102119.91
2022-12-17T06:03:31.488Z,102116.38
2022-12-17T06:06:52.303Z,102123.28
2022-12-17T06:10:12.254Z,102128.44
2022-12-17T06:13:32.228Z,102129.28
2022-12-17T06:16:52.507Z,102136.19
2022-12-17T06:20:12.585Z,102144.81
2022-12-17T06:23:32.647Z,102144.81
2022-12-17T06:26:52.850Z,102147.47
2022-12-17T06:30:18.434Z,102150.94
2022-12-17T06:33:39.313Z,102159.63
2022-12-17T06:36:59.398Z,102162.28
2022-12-17T06:40:19.334Z,102165.78
2022-12-17T06:43:39.529Z,102167.50
2022-12-17T06:46:59.645Z,102165.78
2022-12-17T06:50:19.809Z,102172.75
2022-12-17T06:53:39.668Z,102179.66
2022-12-17T06:56:59.827Z,102180.47
2022-12-17T07:00:19.727Z,102189.09
2022-12-17T07:03:39.777Z,102198.13
2022-12-17T07:06:59.876Z,102196.69
2022-12-17T07:10:20.125Z,102201.00
2022-12-17T07:13:40.240Z,102203.53
2022-12-17T07:17:00.362Z,102208.72
2022-12-17T07:20:21.037Z,102206.13
2022-12-17T07:23:41.023Z,102216.47
2022-12-17T07:27:00.890Z,102228.56
2022-12-17T07:30:21.210Z,102232.88
2022-12-17T07:33:41.260Z,102233.63
2022-12-17T07:37:01.290Z,102243.91
2022-12-17T07:40:22.199Z,102243.78
2022-12-17T07:43:42.023Z,102231.56
2022-12-17T07:47:01.921Z,102234.13
2022-12-17T07:50:22.313Z,102249.66
2022-12-17T07:53:42.628Z,102246.91
2022-12-17T07:57:02.700Z,102246.84
2022-12-17T08:00:23.666Z,102253.78
2022-12-17T08:03:43.448Z,102255.53
2022-12-17T08:07:08.817Z,102271.97
2022-12-17T08:10:31.335Z,102262.41
2022-12-17T08:13:51.282Z,102264.19
2022-12-17T08:17:11.295Z,102274.47
2022-12-17T08:20:31.302Z,102281.47
2022-12-17T08:23:51.549Z,102285.84
2022-12-17T08:27:11.619Z,102294.56
2022-12-17T08:30:32.009Z,102279.84
2022-12-17T08:33:52.226Z,102291.13
2022-12-17T08:37:12.510Z,102303.28
2022-12-17T08:40:36.875Z,102304.19
2022-12-17T08:43:57.110Z,102298.44
2022-12-17T08:47:16.938Z,102300.00
2022-12-17T08:50:36.780Z,102298.44
2022-12-17T08:53:56.876Z,102298.34
2022-12-17T08:57:30.581Z,102310.44
2022-12-17T09:00:51.841Z,102309.50
2022-12-17T09:04:12.821Z,102308.63
2022-12-17T09:07:32.840Z,102312.09
2022-12-17T09:10:52.597Z,102321.59
2022-12-17T09:14:12.483Z,102321.50
2022-12-17T09:17:32.411Z,102318.88
2022-12-17T09:20:52.282Z,102324.94
2022-12-17T09:24:12.187Z,102326.72
2022-12-17T09:27:32.384Z,102324.94
2022-12-17T09:30:52.417Z,102336.25
2022-12-17T09:34:12.606Z,102334.59
2022-12-17T09:37:32.443Z,102338.00
2022-12-17T09:40:54.850Z,102340.63
2022-12-17T09:44:45.968Z,102329.38
2022-12-17T09:48:32.228Z,102330.22
2022-12-17T09:51:54.012Z,102335.41
2022-12-17T09:55:13.995Z,102328.59
2022-12-17T09:58:40.523Z,102337.28
2022-12-17T10:02:01.138Z,102329.41
2022-12-17T10:05:24.419Z,102326.81
2022-12-17T10:08:46.122Z,102325.97
2022-12-17T10:12:06.410Z,102336.44
2022-12-17T10:15:31.895Z,102341.69
2022-12-17T10:18:52.117Z,102346.94
2022-12-17T10:22:12.618Z,102352.13
2022-12-17T10:25:35.691Z,102355.69
2022-12-17T10:28:55.785Z,102345.28
2022-12-17T10:32:36.450Z,102356.56
2022-12-17T10:35:56.626Z,102343.56
2022-12-17T10:39:17.121Z,102343.59
2022-12-17T10:42:49.976Z,102338.50
2022-12-17T10:46:15.285Z,102343.72
2022-12-17T10:49:38.427Z,102338.53
2022-12-17T10:52:58.386Z,102352.47
2022-12-17T10:56:18.741Z,102354.22
2022-12-17T10:59:50.324Z,102359.47
2022-12-17T11:03:10.808Z,102350.84
2022-12-17T11:09:52.993Z,102353.53
2022-12-17T11:13:22.335Z,102355.31
2022-12-17T11:16:50.947Z,102357.91
2022-12-17T11:20:18.843Z,102360.50
2022-12-17T11:23:39.845Z,102361.41
2022-12-17T11:27:03.781Z,102357.06
2022-12-17T11:30:34.905Z,102358.84
2022-12-17T11:34:11.394Z,102357.16
2022-12-17T11:37:40.398Z,102356.31
2022-12-17T11:41:04.449Z,102365.94
2022-12-17T11:44:43.414Z,102356.41
2022-12-17T11:48:03.401Z,102365.16
2022-12-17T11:51:58.243Z,102372.97
2022-12-17T11:55:27.212Z,102372.16
2022-12-17T11:59:16.530Z,102371.31
2022-12-17T12:02:55.897Z,102368.78
2022-12-17T12:06:21.963Z,102374.88
2022-12-17T12:10:07.095Z,102373.09
2022-12-17T12:13:39.279Z,102372.22
2022-12-17T12:17:21.848Z,102372.22
2022-12-17T12:20:47.911Z,102369.63
2022-12-17T12:24:39.450Z,102361.94
2022-12-17T12:28:22.727Z,102369.75
2022-12-17T12:32:00.848Z,102366.38
2022-12-17T12:35:23.099Z,102368.09
2022-12-17T12:38:59.066Z,102369.88
2022-12-17T12:42:27.797Z,102373.38
2022-12-17T12:46:11.469Z,102367.25
2022-12-17T12:49:41.164Z,102378.50
2022-12-17T12:53:01.465Z,102371.50
2022-12-17T12:56:31.880Z,102366.31
2022-12-17T12:59:53.631Z,102376.75
2022-12-17T13:03:13.557Z,102384.53
2022-12-17T13:06:37.599Z,102385.44
2022-12-17T13:09:49.258Z,102386.31
2022-12-17T13:12:51.548Z,102392.41
2022-12-17T13:16:02.004Z,102391.53
2022-12-17T13:19:18.419Z,102383.72
2022-12-17T13:22:23.960Z,102381.94
2022-12-17T13:25:25.795Z,102372.41
2022-12-17T13:28:30.783Z,102373.31
2022-12-17T13:32:07.122Z,102375.84
2022-12-17T13:35:30.500Z,102376.66
2022-12-17T13:38:44.133Z,102375.78
2022-12-17T13:41:45.791Z,102364.53
2022-12-17T13:44:47.951Z,102371.50
2022-12-17T13:47:58.039Z,102376.75
2022-12-17T13:51:02.519Z,102377.63
2022-12-17T13:54:05.001Z,102375.88
2022-12-17T13:57:13.704Z,102381.06
2022-12-17T14:00:25.121Z,102378.44
2022-12-17T14:03:49.989Z,102374.13
2022-12-17T14:06:48.639Z,102383.66
2022-12-17T14:09:50.940Z,102391.47
2022-12-17T14:13:10.636Z,102392.34
2022-12-17T14:16:20.325Z,102380.22
2022-12-17T14:19:24.356Z,102383.72
2022-12-17T14:22:57.068Z,102377.66
2022-12-17T14:25:59.380Z,102392.34
2022-12-17T14:29:00.941Z,102397.56
2022-12-17T14:32:21.404Z,102391.47
2022-12-17T14:35:36.255Z,102392.34
2022-12-17T14:38:39.133Z,102396.59
2022-12-17T14:41:59.939Z,102399.19
2022-12-17T14:45:21.325Z,102406.16
2022-12-17T14:48:45.687Z,102413.16
2022-12-17T14:51:48.512Z,102418.38
2022-12-17T14:54:50.344Z,102418.38
2022-12-17T14:57:53.303Z,102412.28
2022-12-17T15:01:13.286Z,102416.66
2022-12-17T15:04:16.858Z,102411.41
2022-12-17T15:07:24.700Z,102411.41
2022-12-17T15:10:26.247Z,102414.28
2022-12-17T15:13:27.943Z,102418.66
2022-12-17T15:16:29.781Z,102421.25
2022-12-17T15:19:31.475Z,102422.06
2022-12-17T15:22:33.023Z,102420.41
2022-12-17T15:25:38.763Z,102411.00
2022-12-17T15:28:44.302Z,102406.00
2022-12-17T15:31:45.912Z,102411.28
2022-12-17T15:34:48.060Z,102416.50
2022-12-17T15:37:49.603Z,102427.78
2022-12-17T15:40:55.186Z,102432.91
2022-12-17T15:43:56.731Z,102425.88
2022-12-17T15:46:58.252Z,102432.81
2022-12-17T15:50:00.607Z,102437.13
2022-12-17T15:53:02.264Z,102436.22
2022-12-17T15:56:04.897Z,102434.47
2022-12-17T15:59:06.784Z,102440.50
2022-12-17T16:02:10.841Z,102443.09
2022-12-17T16:05:12.646Z,102440.56
2022-12-17T16:08:14.226Z,102443.09
2022-12-17T16:11:16.193Z,102450.03
2022-12-17T16:14:17.738Z,102450.91
2022-12-17T16:17:19.302Z,102454.34
2022-12-17T16:20:20.790Z,102443.09
2022-12-17T16:23:22.347Z,102450.00
2022-12-17T16:26:23.891Z,102462.91
2022-12-17T16:29:25.425Z,102449.88
2022-12-17T16:32:30.309Z,102452.41
2022-12-17T16:35:34.536Z,102442.78
2022-12-17T16:38:36.727Z,102450.84
2022-12-17T16:41:38.576Z,102440.22
2022-12-17T16:44:40.146Z,102442.06
2022-12-17T16:47:41.791Z,102449.88
2022-12-17T16:50:44.504Z,102454.31
2022-12-17T16:53:46.267Z,102442.06
2022-12-17T16:56:48.865Z,102442.84
2022-12-17T16:59:50.717Z,102448.75
2022-12-17T17:02:53.598Z,102443.41
2022-12-17T17:06:00.400Z,102448.63
2022-12-17T17:09:05.650Z,102454.97
2022-12-17T17:12:08.941Z,102464.50
2022-12-17T17:15:10.783Z,102463.44
2022-12-17T17:18:12.310Z,102469.41
2022-12-17T17:21:25.750Z,102468.50
2022-12-17T17:24:27.362Z,102477.13
2022-12-17T17:27:28.900Z,102473.72
2022-12-17T17:30:30.463Z,102471.00
2022-12-17T17:33:34.925Z,102478.66
2022-12-17T17:36:37.009Z,102474.94
2022-12-17T17:39:38.592Z,102479.19
2022-12-17T17:42:40.102Z,102487.91
2022-12-17T17:45:43.263Z,102480.97
2022-12-17T17:48:46.639Z,102488.78
2022-12-17T17:55:09.811Z,102485.34
2022-12-17T17:58:11.367Z,102486.25
2022-12-17T18:01:22.272Z,102494.00
2022-12-17T18:04:24.365Z,102509.63
2022-12-17T18:07:26.971Z,102514.00
2022-12-17T18:10:29.236Z,102515.78
2022-12-17T18:13:59.951Z,102508.78
2022-12-17T18:17:01.454Z,102507.00
2022-12-17T18:20:03.419Z,102506.13
2022-12-17T18:23:04.935Z,102510.38
2022-12-17T18:26:12.772Z,102523.25
2022-12-17T18:29:20.245Z,102532.66
2022-12-17T18:32:21.785Z,102522.19
2022-12-17T18:35:23.968Z,102529.06
2022-12-17T18:38:26.149Z,102529.09
2022-12-17T18:41:46.619Z,102529.97
2022-12-17T18:44:48.159Z,102522.09
2022-12-17T18:47:51.006Z,102514.22
2022-12-17T18:50:52.523Z,102517.56
2022-12-17T18:53:58.391Z,102531.44
2022-12-17T18:57:01.643Z,102531.41
2022-12-17T19:00:04.503Z,102526.13
2022-12-17T19:03:06.685Z,102527.72
2022-12-17T19:06:08.502Z,102538.94
2022-12-17T19:09:20.525Z,102540.72
2022-12-17T19:12:22.487Z,102540.72
2022-12-17T19:15:24.023Z,102536.34
2022-12-17T19:18:25.615Z,102538.91
2022-12-17T19:21:27.239Z,102551.94
2022-12-17T19:24:29.175Z,102547.56
2022-12-17T19:27:30.719Z,102548.47
2022-12-17T19:30:32.325Z,102547.66
2022-12-17T19:33:33.936Z,102545.94
2022-12-17T19:36:36.455Z,102531.03
2022-12-17T19:39:37.959Z,102543.03
2022-12-17T19:42:39.938Z,102552.59
2022-12-17T19:45:42.206Z,102550.00
2022-12-17T19:48:48.720Z,102561.22
2022-12-17T19:51:51.735Z,102579.38
2022-12-17T19:54:53.991Z,102567.22
2022-12-17T19:57:56.575Z,102563.72
2022-12-17T20:01:06.036Z,102568.94
2022-12-17T20:04:07.833Z,102564.63
2022-12-17T20:07:09.387Z,102551.59
2022-12-17T20:10:11.091Z,102549.66
2022-12-17T20:13:12.641Z,102557.34
2022-12-17T20:16:14.260Z,102560.75
2022-12-17T20:19:23.752Z,102560.75
2022-12-17T20:22:25.383Z,102564.16
2022-12-17T20:25:26.925Z,102573.75
2022-12-17T20:28:28.428Z,102573.75
2022-12-17T20:31:31.414Z,102585.78
2022-12-17T20:34:33.195Z,102597.00
2022-12-17T20:37:34.772Z,102593.50
2022-12-17T20:40:40.383Z,102591.75
2022-12-17T20:43:42.562Z,102586.50
2022-12-17T20:46:44.153Z,102592.47
2022-12-17T20:49:45.707Z,102598.44
2022-12-17T20:52:47.252Z,102580.19
2022-12-17T20:55:59.764Z,102582.63
2022-12-17T20:59:05.311Z,102593.75
2022-12-17T21:02:06.986Z,102591.94
2022-12-17T21:05:08.825Z,102592.75
2022-12-17T21:08:10.347Z,102590.94
2022-12-17T21:11:11.887Z,102589.97
2022-12-17T21:14:16.711Z,102590.75
2022-12-17T21:17:18.320Z,102586.38
2022-12-17T21:20:20.162Z,102593.25
2022-12-17T21:23:22.181Z,102596.66
2022-12-17T21:26:29.255Z,102590.44
2022-12-17T21:29:30.796Z,102590.31
2022-12-17T21:32:34.053Z,102601.44
2022-12-17T21:35:35.833Z,102606.59
2022-12-17T21:38:38.010Z,102603.91
2022-12-17T21:41:44.974Z,102615.00
2022-12-17T21:44:46.670Z,102608.00
2022-12-17T21:47:48.380Z,102616.59
2022-12-17T21:50:50.083Z,102606.19
2022-12-17T21:53:57.915Z,102606.09
2022-12-17T21:56:59.516Z,102602.50
2022-12-17T22:00:01.074Z,102618.09
2022-12-17T22:03:02.696Z,102619.81
2022-12-17T22:06:13.636Z,102624.16
2022-12-17T22:09:34.480Z,102616.41
2022-12-17T22:12:55.732Z,102619.97
2022-12-17T22:15:57.329Z,102614.78
2022-12-17T22:19:01.606Z,102622.56
2022-12-17T22:22:03.363Z,102625.16
2022-12-17T22:25:08.505Z,102623.41
2022-12-17T22:28:11.130Z,102613.91
2022-12-17T22:31:31.602Z,102616.47
2022-12-17T22:36:04.978Z,102611.97
2022-12-17T22:41:04.644Z,102615.38
2022-12-17T22:44:37.108Z,102621.44
2022-12-17T22:45:04.082Z,102614.56
2022-12-17T22:48:11.267Z,102615.53
2022-12-17T22:51:20.648Z,102622.44
2022-12-17T22:54:32.714Z,102613.81
2022-12-17T22:57:38.212Z,102619.06
2022-12-17T23:00:40.277Z,102613.94
2022-12-17T23:03:42.357Z,102609.88
2022-12-17T23:06:45.798Z,102615.03
2022-12-17T23:09:47.360Z,102605.41
2022-12-17T23:12:52.430Z,102610.50
2022-12-17T23:15:53.996Z,102618.31
2022-12-17T23:18:55.762Z,102614.81
2022-12-17T23:21:57.484Z,102620.03
2022-12-17T23:24:59.049Z,102617.34
2022-12-17T23:28:00.593Z,102618.91
2022-12-17T23:31:11.392Z,102629.06
2022-12-17T23:34:13.080Z,102622.81
2022-12-17T23:37:14.633Z,102625.28
2022-12-17T23:40:16.203Z,102616.50
2022-12-17T23:43:18.055Z,102618.09
2022-12-17T23:46:20.799Z,102636.22
2022-12-17T23:49:22.342Z,102631.81
2022-12-17T23:52:23.897Z,102647.38
2022-12-17T23:55:25.469Z,102643.00
2022-12-17T23:58:26.968Z,102643.00
